Time;durP1;ratioP1;P1;durP2;ratioP2;P2;SDS_P1;SDS_P2;PMS_P1;PMS_P2;Temp;Humidity;BMP_temperature;BMP_pressure;BME280_temperature;BME280_humidity;BME280_pressure;Samples;Min_cycle;Max_cycle;Signal;HPM_P1;HPM_P2
2023/03/07 00:01:52;;;;;;;1074.00;352.83;;;2.50;99.90;;;;;;5096768;28;20310;-50
2023/03/07 00:04:20;;;;;;;290.93;253.10;;;2.50;99.90;;;;;;5110574;28;20298;-50
2023/03/07 00:06:49;;;;;;;1999.90;556.77;;;2.60;99.90;;;;;;5110337;28;20305;-50
2023/03/07 00:09:17;;;;;;;1999.90;847.40;;;2.60;99.90;;;;;;5110512;28;20291;-50
2023/03/07 00:11:45;;;;;;;1931.80;681.73;;;2.50;99.90;;;;;;5109864;28;20319;-49
2023/03/07 00:14:13;;;;;;;1018.13;468.87;;;2.50;99.90;;;;;;5110407;28;20291;-50
2023/03/07 00:16:41;;;;;;;964.43;408.13;;;2.50;99.90;;;;;;5110429;28;20228;-49
2023/03/07 00:19:10;;;;;;;1138.90;440.97;;;2.50;99.90;;;;;;5110287;28;20286;-50
2023/03/07 00:21:38;;;;;;;609.67;353.13;;;2.50;99.90;;;;;;5110063;28;20315;-50
2023/03/07 00:24:09;;;;;;;1418.87;527.13;;;2.50;99.90;;;;;;5110510;28;20242;-50
2023/03/07 00:26:38;;;;;;;1999.90;595.70;;;2.40;99.90;;;;;;5106741;28;20293;-49
2023/03/07 00:29:07;;;;;;;1999.90;833.37;;;2.40;99.90;;;;;;5110054;28;20202;-50
2023/03/07 00:31:36;;;;;;;1012.03;453.03;;;2.40;99.90;;;;;;5109644;28;20310;-49
2023/03/07 00:34:05;;;;;;;1427.47;523.97;;;2.40;99.90;;;;;;5105397;28;20233;-49
2023/03/07 00:36:33;;;;;;;1044.17;425.53;;;2.40;99.90;;;;;;5110063;28;20261;-50
2023/03/07 00:39:01;;;;;;;902.33;248.90;;;2.40;99.90;;;;;;5109784;28;20303;-50
2023/03/07 00:41:30;;;;;;;1235.27;286.70;;;2.40;99.90;;;;;;5109596;28;20258;-50
2023/03/07 00:43:58;;;;;;;1696.13;466.23;;;2.40;99.90;;;;;;5104330;28;20240;-49
2023/03/07 00:46:27;;;;;;;1999.90;840.90;;;2.40;99.90;;;;;;5109882;28;20234;-50
2023/03/07 00:48:55;;;;;;;1999.90;868.83;;;2.40;99.90;;;;;;5101041;28;20291;-50
2023/03/07 00:51:23;;;;;;;1370.87;456.10;;;2.40;99.90;;;;;;5103810;28;20339;-50
2023/03/07 00:53:52;;;;;;;330.63;158.00;;;2.40;99.90;;;;;;5109911;28;20238;-49
2023/03/07 00:56:22;;;;;;;1999.90;767.43;;;2.40;99.90;;;;;;5109774;28;20262;-50
2023/03/07 00:58:52;;;;;;;854.60;382.80;;;2.40;99.90;;;;;;5109920;28;20248;-50
2023/03/07 01:01:22;;;;;;;782.70;263.20;;;2.40;99.90;;;;;;5109081;28;20227;-49
2023/03/07 01:03:52;;;;;;;1999.90;690.23;;;2.40;99.90;;;;;;5109820;28;20259;-49
2023/03/07 01:06:22;;;;;;;405.47;231.43;;;2.30;99.90;;;;;;5109920;28;20202;-50
2023/03/07 01:08:50;;;;;;;311.13;233.70;;;2.30;99.90;;;;;;5109534;28;20378;-49
2023/03/07 01:11:18;;;;;;;1467.27;431.17;;;2.30;99.90;;;;;;5109686;28;20780;-49
2023/03/07 01:13:46;;;;;;;1622.20;458.77;;;2.30;99.90;;;;;;5110008;28;20336;-48
2023/03/07 01:16:18;;;;;;;1999.90;574.87;;;2.30;99.90;;;;;;5109913;28;20322;-49
2023/03/07 01:18:49;;;;;;;1747.80;469.67;;;2.20;99.90;;;;;;5110081;28;20230;-50
2023/03/07 01:21:19;;;;;;;854.83;317.43;;;2.20;99.90;;;;;;5090264;28;20306;-50
2023/03/07 01:23:47;;;;;;;1999.90;550.73;;;2.30;99.90;;;;;;5089286;28;20296;-49
2023/03/07 01:26:16;;;;;;;1053.07;384.47;;;2.20;99.90;;;;;;5089500;28;20293;-48
2023/03/07 01:28:45;;;;;;;1999.90;647.33;;;2.20;99.90;;;;;;5089111;28;20207;-50
2023/03/07 01:31:14;;;;;;;1999.90;577.70;;;2.20;99.90;;;;;;5088693;28;20254;-49
2023/03/07 01:33:42;;;;;;;867.60;311.27;;;2.10;99.90;;;;;;5089182;28;20292;-50
2023/03/07 01:36:18;;;;;;;533.00;205.57;;;2.10;99.90;;;;;;5088837;28;20323;-49
2023/03/07 01:38:46;;;;;;;548.63;258.73;;;2.20;99.90;;;;;;5088264;28;20355;-49
2023/03/07 01:41:15;;;;;;;1961.43;455.83;;;2.20;99.90;;;;;;5088474;28;20311;-49
2023/03/07 01:43:43;;;;;;;281.77;175.30;;;2.20;99.90;;;;;;5088838;28;20297;-50
2023/03/07 01:46:47;;;;;;;1999.90;641.63;;;2.30;99.90;;;;;;5089109;28;20640;-49
2023/03/07 01:49:24;;;;;;;1999.90;751.17;;;2.20;99.90;;;;;;5079927;28;20685;-49
2023/03/07 01:51:58;;;;;;;1963.63;372.67;;;2.20;99.90;;;;;;5107171;28;20243;-50
2023/03/07 01:54:27;;;;;;;1885.50;453.67;;;2.10;99.90;;;;;;5109332;28;20293;-50
2023/03/07 01:56:55;;;;;;;1999.90;649.13;;;2.20;99.90;;;;;;5097476;28;20865;-50
2023/03/07 01:59:29;;;;;;;222.83;168.33;;;2.20;99.90;;;;;;5088786;28;20297;-49
2023/03/07 02:01:59;;;;;;;1647.77;325.93;;;2.20;99.90;;;;;;5091098;28;20238;-50
2023/03/07 02:04:35;;;;;;;1588.40;425.93;;;2.30;99.90;;;;;;5092650;28;20288;-50
2023/03/07 02:07:04;;;;;;;1999.90;652.00;;;2.30;99.90;;;;;;5092576;28;20205;-50
2023/03/07 02:09:35;;;;;;;1999.90;458.20;;;2.20;99.90;;;;;;5092518;28;20298;-49
2023/03/07 02:12:04;;;;;;;1333.87;317.77;;;2.30;99.90;;;;;;5091930;28;20347;-50
2023/03/07 02:14:32;;;;;;;1999.90;606.13;;;2.30;99.90;;;;;;5092419;28;20232;-49
2023/03/07 02:17:00;;;;;;;1626.23;401.50;;;2.30;99.90;;;;;;5107992;28;20309;-50
2023/03/07 02:19:44;;;;;;;1998.47;484.63;;;2.30;99.90;;;;;;5112854;28;20231;-50
2023/03/07 02:22:16;;;;;;;1999.90;629.47;;;2.20;99.90;;;;;;5111871;28;20310;-49
2023/03/07 02:24:51;;;;;;;1540.10;398.77;;;2.20;99.90;;;;;;5112905;28;20249;-50
2023/03/07 02:27:21;;;;;;;606.93;195.90;;;2.30;99.90;;;;;;5112515;28;20311;-50
2023/03/07 02:29:49;;;;;;;1978.50;382.20;;;2.30;99.90;;;;;;5112455;28;20299;-50
2023/03/07 02:32:17;;;;;;;1490.17;431.53;;;2.20;99.90;;;;;;5097022;28;20220;-50
2023/03/07 02:34:45;;;;;;;1045.43;259.17;;;2.30;99.90;;;;;;5091592;28;20216;-50
2023/03/07 02:37:17;;;;;;;1011.60;294.13;;;2.30;99.90;;;;;;5092185;28;20235;-50
2023/03/07 02:39:46;;;;;;;1832.53;381.77;;;2.30;99.90;;;;;;5081289;28;20317;-50
2023/03/07 02:42:18;;;;;;;906.83;310.23;;;2.20;99.90;;;;;;5091332;28;20774;-50
2023/03/07 02:44:55;;;;;;;1412.67;341.40;;;2.30;99.90;;;;;;5091374;28;20850;-50
2023/03/07 02:47:22;;;;;;;979.13;252.00;;;2.30;99.90;;;;;;5091730;28;20228;-50
2023/03/07 02:49:51;;;;;;;1999.90;488.73;;;2.30;99.90;;;;;;5091563;28;20244;-50
2023/03/07 02:52:20;;;;;;;772.83;267.40;;;2.30;99.90;;;;;;5091201;28;20265;-50
2023/03/07 02:54:48;;;;;;;557.07;215.60;;;2.30;99.90;;;;;;5091409;28;20230;-49
2023/03/07 02:57:17;;;;;;;584.73;248.03;;;2.30;99.90;;;;;;5090702;28;20315;-50
2023/03/07 02:59:45;;;;;;;743.03;185.27;;;2.30;99.90;;;;;;5091529;28;20291;-50
2023/03/07 03:02:14;;;;;;;721.90;223.90;;;2.30;99.90;;;;;;5091326;28;20321;-50
2023/03/07 03:04:42;;;;;;;168.93;94.60;;;2.30;99.90;;;;;;5091085;28;20235;-50
2023/03/07 03:07:10;;;;;;;236.20;137.83;;;2.30;99.90;;;;;;5091411;28;20306;-48
2023/03/07 03:09:38;;;;;;;1999.90;524.50;;;2.30;99.90;;;;;;5090858;28;20211;-50
2023/03/07 03:12:07;;;;;;;681.77;242.87;;;2.30;99.90;;;;;;5090803;28;20268;-49
2023/03/07 03:14:35;;;;;;;1999.90;504.70;;;2.30;99.90;;;;;;5091214;28;20242;-50
2023/03/07 03:17:03;;;;;;;1999.90;432.43;;;2.30;99.90;;;;;;5091256;28;20302;-50
2023/03/07 03:19:33;;;;;;;390.83;165.23;;;2.30;99.90;;;;;;5091242;28;20281;-50
2023/03/07 03:22:01;;;;;;;1749.60;405.80;;;2.30;99.90;;;;;;5090524;28;20719;-49
2023/03/07 03:24:29;;;;;;;826.00;243.50;;;2.30;99.90;;;;;;5091219;28;20958;-50
2023/03/07 03:26:58;;;;;;;808.47;252.57;;;2.30;99.90;;;;;;5093396;28;20197;-50
2023/03/07 03:29:26;;;;;;;716.07;294.33;;;2.30;99.90;;;;;;5092951;28;20196;-50
2023/03/07 03:31:54;;;;;;;1183.43;378.40;;;2.30;99.90;;;;;;5092763;28;20224;-50
2023/03/07 03:34:22;;;;;;;244.97;161.53;;;2.30;99.90;;;;;;5093062;28;20240;-50
2023/03/07 03:36:51;;;;;;;1999.90;536.40;;;2.30;99.90;;;;;;5092985;28;20383;-50
2023/03/07 03:39:20;;;;;;;716.27;246.23;;;2.40;99.90;;;;;;5090661;28;20204;-50
2023/03/07 03:41:48;;;;;;;453.13;135.33;;;2.40;99.90;;;;;;5089893;28;20255;-50
2023/03/07 03:44:16;;;;;;;249.23;162.77;;;2.40;99.90;;;;;;5090856;28;20232;-50
2023/03/07 03:46:44;;;;;;;1458.80;347.37;;;2.40;99.90;;;;;;5090819;28;20289;-50
2023/03/07 03:49:12;;;;;;;1999.90;571.27;;;2.40;99.90;;;;;;5091291;28;20245;-50
2023/03/07 03:51:40;;;;;;;271.30;117.00;;;2.40;99.90;;;;;;5096595;28;20263;-50
2023/03/07 03:54:10;;;;;;;1033.37;326.77;;;2.40;99.90;;;;;;5097004;28;20264;-50
2023/03/07 03:56:38;;;;;;;1658.03;371.27;;;2.40;99.90;;;;;;5093540;28;20287;-50
2023/03/07 03:59:06;;;;;;;1147.07;311.37;;;2.40;99.90;;;;;;5090610;28;20317;-49
2023/03/07 04:01:34;;;;;;;470.60;169.27;;;2.40;99.90;;;;;;5090154;28;20307;-50
2023/03/07 04:04:03;;;;;;;1536.97;386.53;;;2.50;99.90;;;;;;5090088;28;20271;-50
2023/03/07 04:06:34;;;;;;;533.57;255.07;;;2.50;99.90;;;;;;5090112;28;20278;-50
2023/03/07 04:09:03;;;;;;;1036.87;260.97;;;2.40;99.90;;;;;;5090627;28;20235;-50
2023/03/07 04:11:33;;;;;;;1438.87;317.33;;;2.40;99.90;;;;;;5089842;28;20232;-50
2023/03/07 04:14:01;;;;;;;723.57;235.60;;;2.50;99.90;;;;;;5090288;28;20291;-50
2023/03/07 04:16:29;;;;;;;1958.67;462.67;;;2.50;99.90;;;;;;5090366;28;20237;-50
2023/03/07 04:18:57;;;;;;;1558.50;426.53;;;2.50;99.90;;;;;;5091920;28;20248;-50
2023/03/07 04:21:26;;;;;;;594.37;228.97;;;2.50;99.90;;;;;;5091134;28;20736;-50
2023/03/07 04:23:56;;;;;;;223.10;137.20;;;2.50;99.90;;;;;;5091941;28;20209;-49
2023/03/07 04:26:24;;;;;;;1999.90;584.67;;;2.50;99.90;;;;;;5092550;28;20243;-49
2023/03/07 04:28:54;;;;;;;112.67;94.73;;;2.50;99.90;;;;;;5091827;28;20307;-48
2023/03/07 04:31:24;;;;;;;1461.50;334.10;;;2.50;99.90;;;;;;5089842;28;20259;-50
2023/03/07 04:33:53;;;;;;;483.57;224.23;;;2.50;99.90;;;;;;5090274;28;20212;-50
2023/03/07 04:36:23;;;;;;;670.03;251.03;;;2.50;99.90;;;;;;5089870;28;20292;-50
2023/03/07 04:38:51;;;;;;;334.10;143.33;;;2.40;99.90;;;;;;5089642;28;20493;-49
2023/03/07 04:41:20;;;;;;;897.07;217.77;;;2.40;99.90;;;;;;5089437;28;20321;-50
2023/03/07 04:43:48;;;;;;;181.17;129.40;;;2.50;99.90;;;;;;5089914;28;20307;-50
2023/03/07 04:46:18;;;;;;;1164.37;291.70;;;2.50;99.90;;;;;;5089725;28;20215;-50
2023/03/07 04:48:47;;;;;;;704.40;276.50;;;2.50;99.90;;;;;;5089727;28;20200;-49
2023/03/07 04:51:15;;;;;;;278.17;166.43;;;2.50;99.90;;;;;;5089013;28;20731;-49
2023/03/07 04:53:43;;;;;;;1128.17;292.07;;;2.50;99.90;;;;;;5089765;28;20646;-50
2023/03/07 04:56:14;;;;;;;1999.90;467.97;;;2.50;99.90;;;;;;5089495;28;20735;-50
2023/03/07 04:58:43;;;;;;;1999.90;591.03;;;2.50;99.90;;;;;;5089387;28;20249;-50
2023/03/07 05:01:11;;;;;;;1621.77;336.07;;;2.50;99.90;;;;;;5088803;28;20311;-49
2023/03/07 05:03:40;;;;;;;1999.90;586.67;;;2.50;99.90;;;;;;5089701;28;20214;-50
2023/03/07 05:06:13;;;;;;;1999.90;590.17;;;2.50;99.90;;;;;;5089193;28;20628;-50
2023/03/07 05:08:41;;;;;;;1999.90;297.23;;;2.40;99.90;;;;;;5089672;28;20204;-50
2023/03/07 05:11:09;;;;;;;449.00;164.30;;;2.40;99.90;;;;;;5088739;28;20351;-50
2023/03/07 05:13:37;;;;;;;246.03;180.83;;;2.50;99.90;;;;;;5089150;28;20219;-49
2023/03/07 05:16:06;;;;;;;542.20;224.77;;;2.50;99.90;;;;;;5099991;28;20295;-49
2023/03/07 05:18:34;;;;;;;1999.90;544.20;;;2.60;99.90;;;;;;5109910;28;20228;-50
2023/03/07 05:21:03;;;;;;;354.93;145.77;;;2.60;99.90;;;;;;5109933;28;20340;-50
2023/03/07 05:23:31;;;;;;;1083.50;329.87;;;2.50;99.90;;;;;;5109068;28;20220;-49
2023/03/07 05:25:59;;;;;;;1545.30;342.87;;;2.50;99.90;;;;;;5108837;28;20237;-49
2023/03/07 05:28:27;;;;;;;1336.40;331.27;;;2.50;99.90;;;;;;5108847;28;20208;-49
2023/03/07 05:30:55;;;;;;;181.70;132.50;;;2.50;99.90;;;;;;5105776;28;20267;-51
2023/03/07 05:33:24;;;;;;;1474.13;315.57;;;2.60;99.90;;;;;;5109861;28;20203;-50
2023/03/07 05:35:54;;;;;;;424.07;120.17;;;2.60;99.90;;;;;;5110109;28;20342;-50
2023/03/07 05:38:23;;;;;;;1842.60;337.53;;;2.60;99.90;;;;;;5107062;28;20268;-50
2023/03/07 05:40:51;;;;;;;550.27;141.97;;;2.60;99.90;;;;;;5092563;28;20716;-48
2023/03/07 05:43:19;;;;;;;1403.50;376.27;;;2.50;99.90;;;;;;5093328;28;20294;-50
2023/03/07 05:45:47;;;;;;;1499.30;247.93;;;2.60;99.90;;;;;;5079481;28;20296;-51
2023/03/07 05:48:15;;;;;;;1333.90;320.90;;;2.60;99.90;;;;;;5093116;28;20201;-50
2023/03/07 05:50:43;;;;;;;390.93;203.77;;;2.60;99.90;;;;;;5092231;28;20261;-50
2023/03/07 05:53:11;;;;;;;1007.17;259.13;;;2.60;99.90;;;;;;5093074;28;20239;-50
2023/03/07 05:55:40;;;;;;;461.07;159.33;;;2.60;99.90;;;;;;5092370;28;20288;-49
2023/03/07 05:58:08;;;;;;;1986.43;469.50;;;2.60;99.90;;;;;;5092921;28;20304;-49
2023/03/07 06:00:36;;;;;;;1944.17;429.50;;;2.70;99.90;;;;;;5092451;28;20322;-50
2023/03/07 06:03:05;;;;;;;1958.27;486.03;;;2.60;99.90;;;;;;5092704;28;20300;-50
2023/03/07 06:05:33;;;;;;;1999.90;523.27;;;2.60;99.90;;;;;;5092303;28;20688;-50
2023/03/07 06:08:01;;;;;;;736.40;270.57;;;2.60;99.90;;;;;;5092457;28;20208;-49
2023/03/07 06:10:29;;;;;;;1999.90;427.90;;;2.70;99.90;;;;;;5078465;28;20307;-50
2023/03/07 06:12:58;;;;;;;899.23;220.63;;;2.70;99.90;;;;;;5092592;28;20659;-50
2023/03/07 06:15:26;;;;;;;1042.67;301.93;;;2.60;99.90;;;;;;5092623;28;20640;-50
2023/03/07 06:17:54;;;;;;;1416.43;227.90;;;2.70;99.90;;;;;;5092775;28;20245;-50
2023/03/07 06:20:22;;;;;;;1792.60;338.43;;;2.70;99.90;;;;;;5087874;28;20260;-50
2023/03/07 06:22:50;;;;;;;1221.80;273.07;;;2.70;99.90;;;;;;5081893;28;20283;-50
2023/03/07 06:25:20;;;;;;;1862.83;280.90;;;2.80;99.90;;;;;;5092077;28;20287;-50
2023/03/07 06:27:49;;;;;;;1885.43;377.07;;;2.70;99.90;;;;;;5092630;28;20318;-50
2023/03/07 06:30:18;;;;;;;652.07;207.57;;;2.80;99.90;;;;;;5091847;28;20197;-50
2023/03/07 06:32:46;;;;;;;1390.57;336.27;;;2.80;99.90;;;;;;5092201;28;20233;-50
2023/03/07 06:35:14;;;;;;;1544.07;363.80;;;2.80;99.90;;;;;;5092230;28;20223;-50
2023/03/07 06:37:42;;;;;;;1999.90;475.10;;;2.80;99.90;;;;;;5081604;28;20228;-51
2023/03/07 06:40:11;;;;;;;273.07;137.13;;;2.90;99.90;;;;;;5091878;28;20222;-50
2023/03/07 06:42:39;;;;;;;1999.90;521.20;;;2.90;99.90;;;;;;5091843;28;20251;-50
2023/03/07 06:45:08;;;;;;;1553.50;429.07;;;2.90;99.90;;;;;;5091710;28;20241;-50
2023/03/07 06:47:37;;;;;;;1999.90;503.80;;;2.90;99.90;;;;;;5091309;28;20256;-48
2023/03/07 06:50:06;;;;;;;176.53;85.20;;;2.90;99.90;;;;;;5091629;28;20237;-50
2023/03/07 06:52:34;;;;;;;1329.80;286.87;;;3.00;99.90;;;;;;5091593;28;20295;-50
2023/03/07 06:55:03;;;;;;;1999.90;420.47;;;3.00;99.90;;;;;;5091797;28;20306;-49
2023/03/07 06:57:32;;;;;;;1392.43;337.37;;;3.00;99.90;;;;;;5091413;28;20300;-50
2023/03/07 07:00:00;;;;;;;809.80;269.47;;;2.90;99.90;;;;;;5091714;28;20236;-49
2023/03/07 07:02:28;;;;;;;1999.90;493.07;;;3.00;99.90;;;;;;5091148;28;20212;-50
2023/03/07 07:04:58;;;;;;;1482.67;330.63;;;3.00;99.90;;;;;;5091755;28;20209;-50
2023/03/07 07:07:28;;;;;;;250.63;101.97;;;3.00;99.90;;;;;;5091851;28;20676;-50
2023/03/07 07:09:56;;;;;;;468.63;154.50;;;3.00;99.90;;;;;;5090930;28;20302;-50
2023/03/07 07:12:24;;;;;;;618.77;167.57;;;3.10;99.90;;;;;;5078922;28;20696;-50
2023/03/07 07:14:52;;;;;;;952.27;257.73;;;3.10;99.90;;;;;;5090693;28;20682;-50
2023/03/07 07:17:20;;;;;;;1999.90;446.10;;;3.10;99.90;;;;;;5091167;28;20716;-50
2023/03/07 07:19:48;;;;;;;510.43;119.47;;;3.00;99.90;;;;;;5091196;28;20236;-50
2023/03/07 07:22:17;;;;;;;277.50;127.57;;;3.10;99.90;;;;;;5090773;28;20263;-51
2023/03/07 07:24:45;;;;;;;1999.90;491.97;;;3.10;99.90;;;;;;5091106;28;20290;-51
2023/03/07 07:27:13;;;;;;;659.50;174.43;;;3.10;99.90;;;;;;5091010;28;20289;-50
2023/03/07 07:29:41;;;;;;;1999.90;645.03;;;3.10;99.90;;;;;;5090440;28;20261;-50
2023/03/07 07:32:09;;;;;;;909.97;254.80;;;3.10;99.90;;;;;;5090210;28;20769;-50
2023/03/07 07:34:38;;;;;;;1181.77;290.70;;;3.10;99.90;;;;;;5091036;28;20236;-50
2023/03/07 07:37:07;;;;;;;1727.50;311.77;;;3.10;99.90;;;;;;5091040;28;20303;-50
2023/03/07 07:39:39;;;;;;;626.97;212.23;;;3.20;99.90;;;;;;5090365;28;20261;-51
2023/03/07 07:42:07;;;;;;;1248.80;259.40;;;3.20;99.90;;;;;;5090796;28;20232;-51
2023/03/07 07:44:35;;;;;;;1519.03;321.67;;;3.20;99.90;;;;;;5090426;28;20298;-50
2023/03/07 07:47:03;;;;;;;1166.87;224.30;;;3.20;99.90;;;;;;5091041;28;20215;-50
2023/03/07 07:49:31;;;;;;;1706.20;337.97;;;3.20;99.90;;;;;;5090312;28;20293;-50
2023/03/07 07:51:59;;;;;;;1999.90;695.97;;;3.20;99.90;;;;;;5090058;28;20320;-51
2023/03/07 07:54:27;;;;;;;1999.90;397.93;;;3.20;99.90;;;;;;5090014;28;20288;-50
2023/03/07 07:56:57;;;;;;;1610.17;307.90;;;3.20;99.90;;;;;;5090293;28;20710;-50
2023/03/07 07:59:25;;;;;;;1955.07;328.30;;;3.20;99.90;;;;;;5089003;28;20226;-50
2023/03/07 08:01:53;;;;;;;613.50;202.03;;;3.30;99.90;;;;;;5088511;28;20315;-49
2023/03/07 08:04:21;;;;;;;936.43;259.17;;;3.30;99.90;;;;;;5089734;28;20754;-50
2023/03/07 08:06:49;;;;;;;1999.90;755.67;;;3.30;99.90;;;;;;5089722;28;20305;-50
2023/03/07 08:09:17;;;;;;;1700.30;368.00;;;3.20;99.90;;;;;;5090533;28;20244;-49
2023/03/07 08:11:45;;;;;;;1757.50;343.37;;;3.30;99.90;;;;;;5089810;28;20320;-50
2023/03/07 08:14:15;;;;;;;1643.30;372.00;;;3.30;99.90;;;;;;5090150;28;20240;-50
2023/03/07 08:16:43;;;;;;;1999.90;465.33;;;3.40;99.90;;;;;;5090125;28;20294;-51
2023/03/07 08:19:11;;;;;;;228.47;172.07;;;3.40;99.90;;;;;;5090042;28;20207;-50
2023/03/07 08:21:39;;;;;;;1073.17;251.40;;;3.40;99.90;;;;;;5090019;28;20304;-49
2023/03/07 08:24:07;;;;;;;1999.90;429.77;;;3.40;99.90;;;;;;5072486;28;20305;-50
2023/03/07 08:26:35;;;;;;;1999.90;389.33;;;3.50;99.90;;;;;;5086435;28;20277;-49
2023/03/07 08:29:03;;;;;;;1901.47;440.83;;;3.40;99.90;;;;;;5093357;28;20206;-50
2023/03/07 08:31:33;;;;;;;1166.13;323.57;;;3.50;99.90;;;;;;5095099;28;20228;-51
2023/03/07 08:34:01;;;;;;;1239.80;316.87;;;3.60;99.90;;;;;;5095855;28;20222;-50
2023/03/07 08:36:29;;;;;;;1999.90;443.40;;;3.60;99.90;;;;;;5090737;28;20237;-48
2023/03/07 08:38:57;;;;;;;750.63;265.77;;;3.60;99.90;;;;;;5089680;28;20231;-50
2023/03/07 08:41:25;;;;;;;1999.90;486.67;;;3.60;99.90;;;;;;5088875;28;20330;-50
2023/03/07 08:43:53;;;;;;;588.00;190.20;;;3.60;99.90;;;;;;5089177;28;20290;-50
2023/03/07 08:46:22;;;;;;;562.00;202.57;;;3.60;99.90;;;;;;5089585;28;20291;-50
2023/03/07 08:48:52;;;;;;;1999.90;525.40;;;3.60;99.90;;;;;;5089831;28;20212;-50
2023/03/07 08:51:20;;;;;;;426.03;130.17;;;3.60;99.90;;;;;;5089201;28;20220;-50
2023/03/07 08:53:48;;;;;;;1494.53;331.57;;;3.60;99.90;;;;;;5089826;28;20208;-50
2023/03/07 08:56:18;;;;;;;1618.23;356.93;;;3.70;99.90;;;;;;5089630;28;20288;-50
2023/03/07 08:58:46;;;;;;;817.50;226.77;;;3.80;99.90;;;;;;5089704;28;20240;-49
2023/03/07 09:01:14;;;;;;;469.63;179.07;;;3.80;99.90;;;;;;5088979;28;20301;-50
2023/03/07 09:03:42;;;;;;;393.80;119.03;;;3.70;99.90;;;;;;5089488;28;20233;-50
2023/03/07 09:06:17;;;;;;;1675.57;396.10;;;3.80;99.90;;;;;;5089309;28;20212;-49
2023/03/07 09:08:46;;;;;;;1999.90;575.73;;;3.80;99.90;;;;;;5089506;28;20204;-49
2023/03/07 09:11:14;;;;;;;1199.07;293.77;;;3.80;99.90;;;;;;5088575;28;20319;-50
2023/03/07 09:13:42;;;;;;;1999.90;722.60;;;3.80;99.90;;;;;;5089351;28;20829;-49
2023/03/07 09:16:20;;;;;;;1999.90;401.93;;;3.80;99.90;;;;;;5089458;28;20301;-49
2023/03/07 09:18:49;;;;;;;584.47;174.03;;;3.80;99.90;;;;;;5089289;28;20212;-49
2023/03/07 09:21:18;;;;;;;1999.90;572.30;;;3.90;99.90;;;;;;5088528;28;20234;-50
2023/03/07 09:23:46;;;;;;;1300.17;274.53;;;3.90;99.90;;;;;;5089214;28;20247;-50
2023/03/07 09:26:14;;;;;;;1999.90;440.70;;;4.00;99.90;;;;;;5088866;28;20264;-50
2023/03/07 09:28:43;;;;;;;1999.90;548.47;;;4.00;99.90;;;;;;5089077;28;20245;-50
2023/03/07 09:31:12;;;;;;;470.57;169.67;;;4.00;99.90;;;;;;5089004;28;20307;-49
2023/03/07 09:33:41;;;;;;;986.17;241.37;;;4.00;99.90;;;;;;5089351;28;20224;-49
2023/03/07 09:36:12;;;;;;;1726.30;360.23;;;4.10;99.90;;;;;;5088906;28;20205;-50
2023/03/07 09:38:42;;;;;;;1999.90;495.80;;;4.10;99.90;;;;;;5089044;28;20206;-50
2023/03/07 09:41:26;;;;;;;1336.23;303.17;;;4.10;99.90;;;;;;5089006;28;20256;-50
2023/03/07 09:44:00;;;;;;;315.43;155.97;;;4.10;99.90;;;;;;5089360;28;20291;-49
2023/03/07 09:46:36;;;;;;;637.17;202.70;;;4.20;99.90;;;;;;5088956;28;20306;-48
2023/03/07 09:49:17;;;;;;;1084.40;228.33;;;4.20;99.90;;;;;;5089161;28;20213;-49
2023/03/07 09:51:48;;;;;;;1294.47;333.60;;;4.20;99.90;;;;;;5088841;28;20303;-50
2023/03/07 09:54:21;;;;;;;1999.90;670.27;;;4.30;99.90;;;;;;5088680;28;20298;-49
2023/03/07 09:56:52;;;;;;;1281.37;305.27;;;4.30;99.90;;;;;;5088949;28;20696;-50
2023/03/07 09:59:24;;;;;;;1383.07;372.40;;;4.30;99.90;;;;;;5088804;28;20243;-50
2023/03/07 10:02:03;;;;;;;1440.37;438.10;;;4.30;99.90;;;;;;5088240;28;20266;-50
2023/03/07 10:04:39;;;;;;;644.87;169.57;;;4.40;99.90;;;;;;5089062;28;20210;-50
2023/03/07 10:07:11;;;;;;;1407.47;298.57;;;4.30;99.90;;;;;;5088699;28;20206;-50
2023/03/07 10:09:41;;;;;;;1297.87;320.33;;;4.40;99.90;;;;;;5102579;28;20203;-50
2023/03/07 10:12:38;;;;;;;1786.77;457.73;;;4.40;99.90;;;;;;5096571;28;20238;-50
2023/03/07 10:15:18;;;;;;;1592.00;349.20;;;4.50;99.90;;;;;;5095498;28;20302;-51
2023/03/07 10:18:01;;;;;;;1999.90;510.33;;;4.60;99.90;;;;;;5088103;28;20290;-51
2023/03/07 10:20:41;;;;;;;1999.90;688.43;;;4.60;99.90;;;;;;5100929;28;21029;-48
2023/03/07 10:23:27;;;;;;;1480.27;286.13;;;4.60;99.90;;;;;;5098746;28;20207;-49
2023/03/07 10:26:03;;;;;;;209.80;122.60;;;4.70;99.90;;;;;;5086728;28;20207;-50
2023/03/07 10:28:34;;;;;;;120.10;73.83;;;4.70;99.90;;;;;;5091532;28;20296;-50
2023/03/07 10:31:17;;;;;;;1155.87;412.27;;;4.70;99.90;;;;;;5091836;28;20219;-50
2023/03/07 10:33:47;;;;;;;1065.60;247.13;;;4.80;99.90;;;;;;5087946;28;20204;-51
2023/03/07 10:36:19;;;;;;;1575.00;411.40;;;4.90;99.90;;;;;;5081497;28;20200;-50
2023/03/07 10:38:55;;;;;;;181.30;117.83;;;4.90;99.90;;;;;;5090068;28;20243;-50
2023/03/07 10:41:25;;;;;;;103.97;88.80;;;5.00;99.90;;;;;;5091645;28;20324;-50
2023/03/07 10:43:55;;;;;;;1731.23;418.37;;;5.10;99.90;;;;;;5091881;28;20239;-49
2023/03/07 10:46:26;;;;;;;412.83;130.50;;;5.20;99.90;;;;;;5091601;28;20208;-50
2023/03/07 10:48:58;;;;;;;291.87;137.57;;;5.20;99.90;;;;;;5091369;28;20246;-51
2023/03/07 10:51:49;;;;;;;1999.90;620.83;;;5.30;99.90;;;;;;5089634;28;20216;-50
2023/03/07 10:54:21;;;;;;;180.87;106.50;;;5.30;99.90;;;;;;5107719;28;20711;-49
2023/03/07 10:57:08;;;;;;;666.60;214.27;;;5.30;99.90;;;;;;5088950;28;20212;-50
2023/03/07 10:59:38;;;;;;;1013.03;311.53;;;5.30;99.90;;;;;;5091402;28;20289;-51
2023/03/07 11:02:29;;;;;;;742.60;258.77;;;5.30;99.90;;;;;;5090890;28;20269;-51
2023/03/07 11:04:57;;;;;;;1989.33;482.83;;;5.30;99.90;;;;;;5091155;28;20297;-50
2023/03/07 11:07:28;;;;;;;1999.90;528.70;;;5.30;99.90;;;;;;5091475;28;20300;-50
2023/03/07 11:09:57;;;;;;;759.67;195.73;;;5.30;99.90;;;;;;5080706;28;20236;-50
2023/03/07 11:12:28;;;;;;;1961.57;452.03;;;5.30;99.90;;;;;;5090666;28;20232;-50
2023/03/07 11:15:08;;;;;;;1999.90;627.97;;;5.30;99.90;;;;;;5090773;28;20232;-50
2023/03/07 11:17:42;;;;;;;1829.77;413.50;;;5.40;99.90;;;;;;5091367;28;20750;-50
2023/03/07 11:20:20;;;;;;;730.40;260.10;;;5.30;99.90;;;;;;5090353;28;20265;-50
2023/03/07 11:22:48;;;;;;;1578.20;335.60;;;5.30;99.90;;;;;;5090603;28;20248;-50
2023/03/07 11:25:19;;;;;;;1675.10;416.60;;;5.40;99.90;;;;;;5090818;28;20209;-51
2023/03/07 11:27:54;;;;;;;977.47;276.33;;;5.50;99.90;;;;;;5092025;28;20305;-50
2023/03/07 11:30:25;;;;;;;1455.60;391.70;;;5.60;99.90;;;;;;5090447;28;20295;-50
2023/03/07 11:33:00;;;;;;;1999.90;535.97;;;5.60;99.90;;;;;;5090833;28;20209;-50
2023/03/07 11:35:42;;;;;;;1999.90;831.43;;;5.70;99.90;;;;;;5090561;28;20203;-50
2023/03/07 11:38:21;;;;;;;801.77;243.33;;;5.70;99.90;;;;;;5091133;28;20214;-49
2023/03/07 11:40:53;;;;;;;1999.90;510.27;;;5.80;99.90;;;;;;5090068;28;20317;-51
2023/03/07 11:43:35;;;;;;;223.97;114.73;;;5.90;99.90;;;;;;5090382;28;20204;-51
2023/03/07 11:46:09;;;;;;;1999.90;554.27;;;5.90;99.90;;;;;;5089975;28;20306;-50
2023/03/07 11:48:51;;;;;;;816.37;259.30;;;5.90;99.90;;;;;;5090551;28;20307;-51
2023/03/07 11:51:38;;;;;;;1999.83;443.37;;;6.10;99.90;;;;;;5089950;28;20588;-53
2023/03/07 11:54:18;;;;;;;1999.90;678.20;;;6.30;99.90;;;;;;5089323;28;20732;-51
2023/03/07 11:56:52;;;;;;;1999.90;706.30;;;6.60;99.90;;;;;;5090105;28;20834;-50
2023/03/07 11:59:36;;;;;;;782.07;243.03;;;6.70;99.90;;;;;;5090255;28;20234;-51
2023/03/07 12:02:15;;;;;;;1999.90;775.83;;;6.60;99.90;;;;;;5089945;28;20320;-51
2023/03/07 12:05:04;;;;;;;1999.90;537.80;;;6.60;99.90;;;;;;5089727;28;20204;-50
2023/03/07 12:08:03;;;;;;;928.07;260.27;;;6.70;99.90;;;;;;5082691;28;20793;-50
2023/03/07 12:10:44;;;;;;;1803.20;457.47;;;6.50;99.90;;;;;;5086535;28;20288;-50
2023/03/07 12:13:21;;;;;;;1917.03;549.17;;;6.50;99.90;;;;;;5084452;28;20207;-50
2023/03/07 12:16:01;;;;;;;1280.37;313.13;;;6.40;99.90;;;;;;5089980;28;20210;-50
2023/03/07 12:18:49;;;;;;;1273.63;358.50;;;6.40;99.90;;;;;;5090021;28;20212;-51
2023/03/07 12:21:30;;;;;;;1999.90;592.80;;;6.30;99.90;;;;;;5089358;28;20326;-51
2023/03/07 12:24:01;;;;;;;1999.90;796.57;;;6.40;99.90;;;;;;5089962;28;20298;-50
2023/03/07 12:26:36;;;;;;;219.90;104.13;;;6.60;99.90;;;;;;5089971;28;20298;-50
2023/03/07 12:29:10;;;;;;;1485.63;364.53;;;6.60;99.90;;;;;;5078493;28;20294;-51